Time;durP1;ratioP1;P1;durP2;ratioP2;P2;SDS_P1;SDS_P2;PMS_P1;PMS_P2;Temp;Humidity;BMP_temperature;BMP_pressure;BME280_temperature;BME280_humidity;BME280_pressure;Samples;Min_cycle;Max_cycle;Signal;HPM_P1;HPM_P2
2022/08/09 00:02:16;;;;;;;3.85;3.10;;;;;;;17.60;56.16;96529.06;5033934;28;20045;-68
2022/08/09 00:04:43;;;;;;;5.05;2.97;;;;;;;17.46;56.68;96522.88;5033923;28;20136;-63
2022/08/09 00:07:12;;;;;;;3.20;2.70;;;;;;;17.33;57.29;96520.22;5033830;28;20092;-67
2022/08/09 00:09:39;;;;;;;7.07;2.85;;;;;;;17.23;57.45;96519.13;5033839;28;20081;-68
2022/08/09 00:12:07;;;;;;;7.55;3.00;;;;;;;17.13;57.97;96525.00;5034120;28;20049;-65
2022/08/09 00:14:34;;;;;;;5.43;2.97;;;;;;;17.09;58.36;96518.22;5033782;28;20502;-68
2022/08/09 00:17:01;;;;;;;3.85;3.00;;;;;;;17.02;58.62;96523.03;5033714;28;20557;-66
2022/08/09 00:19:28;;;;;;;5.25;2.72;;;;;;;17.02;58.50;96515.13;5033715;28;20124;-68
2022/08/09 00:21:55;;;;;;;3.95;3.00;;;;;;;16.98;58.70;96521.53;5033837;28;20073;-68
2022/08/09 00:24:25;;;;;;;5.78;2.92;;;;;;;16.89;58.99;96515.03;5033502;28;20054;-67
2022/08/09 00:26:52;;;;;;;4.57;2.83;;;;;;;16.86;59.10;96515.22;5033618;28;20141;-70
2022/08/09 00:29:19;;;;;;;4.57;3.20;;;;;;;16.78;59.60;96513.09;5033548;28;20079;-68
2022/08/09 00:31:46;;;;;;;6.53;2.88;;;;;;;16.75;59.50;96512.44;5033381;28;20092;-69
2022/08/09 00:34:13;;;;;;;7.35;3.28;;;;;;;16.78;60.01;96513.09;5033405;28;20431;-68
2022/08/09 00:36:40;;;;;;;5.25;3.40;;;;;;;16.76;59.88;96511.47;5033594;28;20064;-64
2022/08/09 00:39:08;;;;;;;4.95;3.05;;;;;;;16.72;60.07;96513.50;5033452;28;20049;-68
2022/08/09 00:41:36;;;;;;;4.28;2.80;;;;;;;16.74;59.80;96502.81;5033247;28;20108;-68
2022/08/09 00:44:04;;;;;;;4.75;3.30;;;;;;;16.76;59.85;96507.06;5033422;28;20060;-69
2022/08/09 00:46:31;;;;;;;7.05;3.13;;;;;;;16.80;59.98;96511.19;5033370;28;20056;-67
2022/08/09 00:48:58;;;;;;;6.18;3.17;;;;;;;16.80;59.96;96511.19;5033420;28;20077;-68
2022/08/09 00:51:25;;;;;;;3.60;3.30;;;;;;;16.83;60.05;96506.66;5033317;28;20084;-67
2022/08/09 00:53:53;;;;;;;6.03;3.50;;;;;;;16.85;60.06;96513.53;5033327;28;20461;-69
2022/08/09 00:56:20;;;;;;;6.60;3.28;;;;;;;16.85;60.28;96504.75;5033102;28;20046;-68
2022/08/09 00:58:49;;;;;;;5.18;3.55;;;;;;;16.84;60.40;96505.72;5033240;28;20052;-67
2022/08/09 01:01:20;;;;;;;8.98;3.47;;;;;;;16.82;60.68;96505.81;5033067;28;20129;-69
2022/08/09 01:03:54;;;;;;;6.78;4.57;;;;;;;16.84;60.62;96514.50;5033098;28;20049;-64
2022/08/09 01:06:30;;;;;;;3.92;3.42;;;;;;;16.84;60.77;96519.78;5032679;28;20060;-65
2022/08/09 01:09:09;;;;;;;5.85;3.28;;;;;;;16.84;60.98;96511.84;5032766;28;20081;-64
2022/08/09 01:11:50;;;;;;;3.97;3.20;;;;;;;16.84;60.98;96518.94;5032917;28;20499;-62
2022/08/09 01:14:28;;;;;;;3.72;3.38;;;;;;;16.76;61.52;96512.34;5033032;28;20132;-65
2022/08/09 01:17:02;;;;;;;4.03;3.70;;;;;;;16.63;61.42;96514.06;5032875;28;20045;-67
2022/08/09 01:19:42;;;;;;;5.32;3.67;;;;;;;16.53;61.62;96516.44;5032873;28;20088;-65
2022/08/09 01:22:42;;;;;;;3.85;3.55;;;;;;;16.46;62.21;96517.78;5033024;28;20042;-69
2022/08/09 01:25:27;;;;;;;5.60;3.90;;;;;;;16.41;62.62;96518.88;5030405;28;20450;-69
2022/08/09 01:27:57;;;;;;;3.45;3.08;;;;;;;16.42;62.33;96517.09;5032795;28;20119;-68
2022/08/09 01:30:26;;;;;;;7.60;4.50;;;;;;;16.40;62.54;96522.47;5032821;28;20049;-68
2022/08/09 01:32:55;;;;;;;11.35;3.67;;;;;;;16.36;62.68;96523.63;5032832;28;20049;-64
2022/08/09 01:35:26;;;;;;;5.95;3.60;;;;;;;16.39;62.76;96512.03;5032871;28;20583;-66
2022/08/09 01:37:58;;;;;;;5.57;3.72;;;;;;;16.27;63.07;96514.47;5032776;28;20056;-67
2022/08/09 01:40:28;;;;;;;4.93;3.63;;;;;;;16.27;62.99;96509.19;5032799;28;20049;-68
2022/08/09 01:42:58;;;;;;;7.20;3.70;;;;;;;16.30;63.00;96505.53;5032784;28;20046;-64
2022/08/09 01:45:26;;;;;;;4.07;3.47;;;;;;;16.28;62.81;96504.75;5032647;28;20487;-67
2022/08/09 01:47:56;;;;;;;8.13;3.80;;;;;;;16.24;63.31;96496.19;5032643;28;20104;-67
2022/08/09 01:50:24;;;;;;;5.95;4.18;;;;;;;16.25;63.52;96489.09;5032688;28;20081;-66
2022/08/09 01:52:53;;;;;;;3.85;3.38;;;;;;;16.32;63.46;96485.16;5032631;28;20049;-64
2022/08/09 01:55:23;;;;;;;4.97;3.50;;;;;;;16.31;63.23;96483.44;5032626;28;20049;-66
2022/08/09 01:57:52;;;;;;;6.72;3.65;;;;;;;16.36;63.37;96489.31;5032696;28;20045;-64
2022/08/09 02:00:21;;;;;;;7.22;3.53;;;;;;;16.38;63.22;96483.94;5032615;28;20100;-65
2022/08/09 02:02:51;;;;;;;6.70;3.75;;;;;;;16.45;62.94;96485.25;5032532;28;20057;-62
2022/08/09 02:05:21;;;;;;;6.28;3.70;;;;;;;16.49;63.19;96473.53;5032181;28;20128;-66
2022/08/09 02:07:54;;;;;;;5.70;3.67;;;;;;;16.45;63.20;96484.38;5032582;28;20056;-66
2022/08/09 02:10:25;;;;;;;4.38;3.65;;;;;;;16.45;63.35;96479.97;5032503;28;20487;-67
2022/08/09 02:12:54;;;;;;;8.30;3.97;;;;;;;16.46;63.12;96483.47;5032506;28;20049;-68
2022/08/09 02:15:25;;;;;;;3.97;3.47;;;;;;;16.49;63.34;96484.09;5032519;28;20468;-66
2022/08/09 02:17:54;;;;;;;3.53;3.20;;;;;;;16.44;63.04;96467.72;5032405;28;20046;-67
2022/08/09 02:20:22;;;;;;;5.57;3.40;;;;;;;16.46;63.38;96480.81;5034175;28;20052;-65
2022/08/09 02:22:56;;;;;;;3.70;3.33;;;;;;;16.44;63.23;96475.63;5035290;28;20041;-65
2022/08/09 02:25:26;;;;;;;7.78;3.88;;;;;;;16.46;63.30;96479.00;5035801;28;20450;-65
2022/08/09 02:27:57;;;;;;;5.63;3.72;;;;;;;16.46;62.98;96473.72;5035841;28;20529;-64
2022/08/09 02:30:29;;;;;;;3.80;3.00;;;;;;;16.46;62.90;96463.16;5035916;28;20093;-68
2022/08/09 02:32:58;;;;;;;6.32;3.55;;;;;;;16.46;62.85;96455.25;5035697;28;20445;-64
2022/08/09 02:35:27;;;;;;;11.48;3.60;;;;;;;16.43;62.41;96460.72;5035704;28;20049;-64
2022/08/09 02:38:00;;;;;;;4.25;3.10;;;;;;;16.39;62.22;96465.38;5035635;28;20045;-67
2022/08/09 02:40:29;;;;;;;5.95;3.45;;;;;;;16.37;62.17;96458.47;5035775;28;20111;-65
2022/08/09 02:43:00;;;;;;;6.85;2.97;;;;;;;16.36;62.17;96460.28;5035557;28;20073;-64
2022/08/09 02:45:32;;;;;;;5.82;3.28;;;;;;;16.39;61.50;96454.81;5035529;28;20152;-68
2022/08/09 02:48:05;;;;;;;8.95;3.05;;;;;;;16.44;61.32;96456.31;5035484;28;20107;-67
2022/08/09 02:50:37;;;;;;;6.50;3.40;;;;;;;16.45;61.14;96453.56;5035509;28;20045;-69
2022/08/09 02:53:10;;;;;;;2.90;2.65;;;;;;;16.45;60.03;96458.84;5035306;28;20087;-63
2022/08/09 02:55:40;;;;;;;10.23;2.72;;;;;;;16.55;59.73;96459.09;5035315;28;20054;-66
2022/08/09 02:58:10;;;;;;;3.73;2.97;;;;;;;16.60;59.75;96462.31;5035328;28;20054;-69
2022/08/09 03:00:41;;;;;;;5.15;3.13;;;;;;;16.63;60.24;96459.47;5035167;28;20561;-62
2022/08/09 03:03:09;;;;;;;3.00;2.70;;;;;;;16.62;60.08;96465.69;5035181;28;20400;-63
2022/08/09 03:05:38;;;;;;;3.92;2.90;;;;;;;16.57;59.87;96459.00;5034791;28;20061;-67
2022/08/09 03:08:05;;;;;;;9.00;3.08;;;;;;;16.58;59.87;96464.19;5034967;28;20096;-64
2022/08/09 03:10:34;;;;;;;7.35;2.70;;;;;;;16.49;59.87;96467.41;5035093;28;20426;-71
2022/08/09 03:13:02;;;;;;;6.80;3.00;;;;;;;16.40;60.61;96461.78;5034989;28;20052;-65
2022/08/09 03:15:31;;;;;;;5.10;3.00;;;;;;;16.38;60.02;96465.47;5034897;28;20081;-66
2022/08/09 03:18:01;;;;;;;4.78;2.80;;;;;;;16.44;58.97;96467.72;5034864;28;20049;-63
2022/08/09 03:20:30;;;;;;;11.85;2.70;;;;;;;16.48;58.55;96469.22;5034867;28;20049;-69
2022/08/09 03:22:58;;;;;;;3.60;2.33;;;;;;;16.54;56.31;96467.97;5034817;28;20124;-68
2022/08/09 03:25:27;;;;;;;8.48;2.80;;;;;;;16.74;56.20;96458.75;5034547;28;20099;-69
2022/08/09 03:27:55;;;;;;;9.25;2.75;;;;;;;16.93;56.13;96457.59;5034779;28;20056;-69
2022/08/09 03:30:23;;;;;;;7.00;3.08;;;;;;;17.10;57.00;96458.31;5034418;28;20049;-67
2022/08/09 03:32:52;;;;;;;8.07;2.60;;;;;;;17.20;56.12;96458.53;5034651;28;20132;-68
2022/08/09 03:35:21;;;;;;;5.80;2.67;;;;;;;17.34;55.40;96455.81;5034496;28;20053;-65
2022/08/09 03:37:48;;;;;;;6.38;3.00;;;;;;;17.43;56.35;96454.38;5034526;28;20487;-66
2022/08/09 03:40:16;;;;;;;10.13;2.47;;;;;;;17.50;55.42;96458.28;5034433;28;20049;-66
2022/08/09 03:42:43;;;;;;;6.75;2.75;;;;;;;17.61;56.10;96454.06;5034447;28;20052;-68
2022/08/09 03:45:11;;;;;;;5.25;2.58;;;;;;;17.65;56.88;96459.06;5034164;28;20065;-65
2022/08/09 03:47:39;;;;;;;5.40;3.22;;;;;;;17.66;56.54;96463.38;5034241;28;20052;-65
2022/08/09 03:50:08;;;;;;;10.23;2.58;;;;;;;17.66;55.89;96455.44;5034264;28;20075;-70
2022/08/09 03:52:39;;;;;;;5.75;2.55;;;;;;;17.76;55.73;96465.41;5034124;28;20079;-70
2022/08/09 03:55:09;;;;;;;7.45;3.40;;;;;;;17.78;56.18;96466.13;5034243;28;20119;-64
2022/08/09 03:57:37;;;;;;;8.63;3.10;;;;;;;17.85;55.40;96461.28;5033994;28;20045;-64
2022/08/09 04:00:05;;;;;;;3.65;2.97;;;;;;;18.06;56.04;96462.44;5034092;28;20414;-65
2022/08/09 04:02:34;;;;;;;3.95;2.80;;;;;;;18.39;53.94;96465.47;5034027;28;20046;-67
2022/08/09 04:05:03;;;;;;;3.45;2.53;;;;;;;18.95;50.54;96473.91;5033726;28;20050;-67
2022/08/09 04:07:30;;;;;;;4.72;2.60;;;;;;;19.53;49.15;96462.59;5033872;28;20132;-67
2022/08/09 04:09:59;;;;;;;11.75;2.58;;;;;;;20.13;47.24;96463.41;5033880;28;20121;-66
2022/08/09 04:12:44;;;;;;;6.28;2.88;;;;;;;20.74;45.04;96474.63;5033918;28;20073;-68
2022/08/09 04:15:12;;;;;;;12.82;3.28;;;;;;;21.16;44.61;96472.09;5033754;28;20075;-64
2022/08/09 04:17:40;;;;;;;6.65;2.80;;;;;;;21.56;43.60;96470.63;5033810;28;20503;-67
2022/08/09 04:20:09;;;;;;;7.05;2.70;;;;;;;21.90;43.14;96477.59;5033587;28;20490;-68
2022/08/09 04:22:37;;;;;;;6.63;2.38;;;;;;;22.24;42.10;96475.66;5033812;28;20084;-66
2022/08/09 04:25:07;;;;;;;5.32;2.45;;;;;;;22.70;40.53;96484.13;5033508;28;20095;-66
2022/08/09 04:27:41;;;;;;;6.30;2.45;;;;;;;23.08;39.89;96492.31;5033575;28;20061;-68
2022/08/09 04:30:10;;;;;;;6.97;2.50;;;;;;;23.39;38.84;96486.91;5033526;28;20045;-68
2022/08/09 04:32:38;;;;;;;6.10;2.40;;;;;;;23.76;38.01;96484.50;5033399;28;20136;-68
2022/08/09 04:35:07;;;;;;;4.68;2.15;;;;;;;24.12;38.10;96482.03;5033467;28;20458;-68
2022/08/09 04:37:34;;;;;;;3.05;2.05;;;;;;;24.50;37.51;96484.72;5033487;28;20084;-66
2022/08/09 04:40:01;;;;;;;7.53;2.70;;;;;;;24.72;37.29;96486.16;5033383;28;20068;-70
2022/08/09 04:42:31;;;;;;;7.53;2.72;;;;;;;25.02;36.67;96478.00;5032800;28;20052;-65
2022/08/09 04:44:59;;;;;;;5.43;2.38;;;;;;;25.38;36.18;96476.34;5033300;28;20045;-63
2022/08/09 04:47:28;;;;;;;5.97;3.13;;;;;;;25.64;36.03;96468.38;5033270;28;20057;-70
2022/08/09 04:49:55;;;;;;;2.90;1.98;;;;;;;25.98;35.50;96464.94;5033417;28;20558;-65
2022/08/09 04:52:24;;;;;;;9.18;2.70;;;;;;;26.39;34.91;96468.06;5033374;28;20056;-68
2022/08/09 04:54:51;;;;;;;8.82;2.70;;;;;;;26.66;35.24;96466.16;5033307;28;20057;-65
2022/08/09 04:57:18;;;;;;;4.68;2.53;;;;;;;27.02;34.71;96473.97;5033187;28;20107;-71
2022/08/09 04:59:47;;;;;;;5.45;2.28;;;;;;;27.36;33.93;96474.91;5033229;28;20053;-68
2022/08/09 05:02:14;;;;;;;7.15;2.40;;;;;;;27.61;33.69;96464.16;5033033;28;20085;-66
2022/08/09 05:04:41;;;;;;;3.75;2.42;;;;;;;27.61;33.84;96466.84;5033173;28;20049;-66
2022/08/09 05:07:08;;;;;;;6.72;2.80;;;;;;;27.72;33.40;96461.16;5032909;28;20045;-70
2022/08/09 05:09:35;;;;;;;8.55;2.20;;;;;;;27.81;33.78;96459.28;5033070;28;20052;-68
2022/08/09 05:12:03;;;;;;;5.82;2.47;;;;;;;27.99;33.78;96459.09;5032950;28;20495;-69
2022/08/09 05:14:30;;;;;;;5.20;2.83;;;;;;;28.04;33.10;96461.28;5032956;28;20072;-67
2022/08/09 05:16:59;;;;;;;5.15;2.15;;;;;;;28.01;33.10;96461.63;5033026;28;20050;-63
2022/08/09 05:19:28;;;;;;;3.97;2.30;;;;;;;28.08;33.22;96456.41;5033067;28;20050;-66
2022/08/09 05:21:56;;;;;;;7.32;2.78;;;;;;;28.41;33.02;96458.19;5032729;28;20049;-63
2022/08/09 05:24:24;;;;;;;6.03;2.28;;;;;;;28.74;32.98;96464.25;5032943;28;20122;-67
2022/08/09 05:26:52;;;;;;;6.82;2.58;;;;;;;28.80;31.76;96453.81;5032725;28;20134;-66
2022/08/09 05:29:21;;;;;;;5.20;2.45;;;;;;;28.94;31.32;96453.09;5032739;28;20096;-70
2022/08/09 05:31:50;;;;;;;7.28;2.53;;;;;;;29.11;31.34;96458.38;5032748;28;20483;-67
2022/08/09 05:34:20;;;;;;;3.15;2.38;;;;;;;29.51;31.63;96452.88;5032755;28;20124;-68
2022/08/09 05:36:52;;;;;;;3.47;2.30;;;;;;;29.73;30.35;96453.88;5032533;28;20045;-64
2022/08/09 05:39:21;;;;;;;2.97;2.08;;;;;;;30.16;31.77;96440.84;5032753;28;20053;-64
2022/08/09 05:41:49;;;;;;;4.45;2.13;;;;;;;30.35;29.10;96448.41;5032702;28;20403;-67
2022/08/09 05:44:17;;;;;;;7.40;2.20;;;;;;;30.53;28.43;96449.88;5032597;28;20049;-67
2022/08/09 05:46:49;;;;;;;5.00;2.65;;;;;;;30.52;29.07;96443.63;5032665;28;20430;-66
2022/08/09 05:49:18;;;;;;;6.72;2.08;;;;;;;30.63;28.26;96457.66;5031696;28;20061;-65
2022/08/09 05:51:51;;;;;;;4.28;2.58;;;;;;;30.87;27.71;96450.31;5032561;28;20081;-66
2022/08/09 05:54:19;;;;;;;2.83;1.90;;;;;;;31.00;27.58;96446.94;5032301;28;20107;-68
2022/08/09 05:56:48;;;;;;;7.60;2.20;;;;;;;31.12;27.66;96452.69;5036344;28;20499;-68
2022/08/09 05:59:16;;;;;;;7.38;2.35;;;;;;;31.41;27.17;96453.59;5036430;28;20499;-67
2022/08/09 06:01:48;;;;;;;3.45;2.15;;;;;;;31.66;26.02;96450.47;5036327;28;20141;-67
2022/08/09 06:04:20;;;;;;;4.05;2.10;;;;;;;31.62;25.83;96457.31;5036136;28;20128;-66
2022/08/09 06:06:50;;;;;;;3.75;2.40;;;;;;;31.23;25.92;96464.81;5035806;28;20089;-66
2022/08/09 06:09:19;;;;;;;6.90;1.90;;;;;;;31.12;26.06;96458.88;5036109;28;20046;-65
2022/08/09 06:11:51;;;;;;;4.38;2.17;;;;;;;31.04;27.27;96467.13;5036109;28;20061;-68
2022/08/09 06:14:21;;;;;;;3.13;1.90;;;;;;;30.98;26.45;96462.47;5036208;28;20073;-68
2022/08/09 06:16:54;;;;;;;4.05;2.30;;;;;;;30.95;25.96;96458.31;5036066;28;20084;-64
2022/08/09 06:19:22;;;;;;;3.60;2.40;;;;;;;31.16;26.11;96470.16;5035999;28;20046;-67
2022/08/09 06:21:51;;;;;;;6.53;2.53;;;;;;;31.51;26.18;96470.31;5035895;28;20103;-66
2022/08/09 06:24:19;;;;;;;7.30;2.83;;;;;;;31.94;25.74;96467.78;5035988;28;20045;-66
2022/08/09 06:26:47;;;;;;;6.63;2.17;;;;;;;32.38;24.46;96473.88;5035754;28;20049;-68
2022/08/09 06:29:15;;;;;;;5.00;2.40;;;;;;;32.78;24.99;96459.78;5035857;28;20495;-67
2022/08/09 06:31:43;;;;;;;4.57;2.00;;;;;;;33.04;24.49;96458.19;5035836;28;20060;-65
2022/08/09 06:34:11;;;;;;;4.82;2.20;;;;;;;33.02;24.22;96452.97;5035632;28;20119;-67
2022/08/09 06:36:39;;;;;;;7.13;2.58;;;;;;;32.77;23.44;96455.38;5035720;28;20049;-69
2022/08/09 06:39:11;;;;;;;3.67;2.00;;;;;;;32.71;23.28;96457.03;5035774;28;20088;-67
2022/08/09 06:41:40;;;;;;;3.72;1.90;;;;;;;32.82;23.47;96455.63;5035531;28;20049;-68
2022/08/09 06:44:09;;;;;;;3.60;2.10;;;;;;;32.81;23.12;96462.06;5035071;28;20050;-66
2022/08/09 06:46:38;;;;;;;5.25;2.80;;;;;;;32.69;23.21;96455.56;5035417;28;20442;-64
2022/08/09 06:49:06;;;;;;;5.45;1.90;;;;;;;32.69;22.98;96464.53;5035445;28;20046;-67
2022/08/09 06:51:37;;;;;;;7.95;2.33;;;;;;;32.60;25.01;96463.84;5035324;28;20089;-70
2022/08/09 06:54:05;;;;;;;7.47;2.25;;;;;;;32.14;24.79;96465.22;5035256;28;20132;-67
2022/08/09 06:56:36;;;;;;;6.80;2.63;;;;;;;32.26;25.69;96466.34;5035202;28;20049;-66
2022/08/09 06:59:04;;;;;;;8.02;2.10;;;;;;;31.91;25.35;96458.19;5035534;28;20415;-63
2022/08/09 07:01:32;;;;;;;3.55;1.65;;;;;;;31.54;26.00;96471.78;5035176;28;20435;-65
2022/08/09 07:04:03;;;;;;;3.60;2.33;;;;;;;31.70;25.61;96461.75;5035126;28;20108;-66
2022/08/09 07:06:34;;;;;;;4.15;2.13;;;;;;;32.03;25.00;96464.72;5034264;28;20076;-63
2022/08/09 07:09:02;;;;;;;4.55;2.67;;;;;;;32.34;25.00;96469.91;5035042;28;20107;-66
2022/08/09 07:11:32;;;;;;;4.03;2.25;;;;;;;32.30;25.05;96471.34;5034902;28;20084;-65
2022/08/09 07:14:02;;;;;;;2.75;2.10;;;;;;;32.20;24.52;96469.03;5034627;28;20049;-64
2022/08/09 07:16:31;;;;;;;3.03;2.15;;;;;;;31.67;25.20;96465.69;5034769;28;20056;-68
2022/08/09 07:18:59;;;;;;;3.50;2.20;;;;;;;31.67;25.80;96481.91;5034910;28;20103;-68
2022/08/09 07:21:27;;;;;;;3.53;2.33;;;;;;;31.83;25.13;96475.38;5034692;28;20050;-67
2022/08/09 07:23:56;;;;;;;5.55;2.28;;;;;;;31.92;24.33;96480.63;5034691;28;20388;-70
2022/08/09 07:26:24;;;;;;;7.07;2.35;;;;;;;31.72;23.72;96465.09;5034648;28;20063;-64
2022/08/09 07:28:52;;;;;;;4.03;2.10;;;;;;;31.74;24.52;96455.75;5034594;28;20049;-68
2022/08/09 07:31:23;;;;;;;4.07;2.00;;;;;;;32.01;23.85;96463.25;5034550;28;20107;-67
2022/08/09 07:33:51;;;;;;;2.65;2.00;;;;;;;32.10;23.71;96469.34;5034532;28;20156;-64
2022/08/09 07:36:20;;;;;;;3.35;1.95;;;;;;;32.36;23.53;96463.28;5034538;28;20085;-66
2022/08/09 07:38:49;;;;;;;4.50;1.95;;;;;;;32.89;23.12;96477.28;5034454;28;20046;-65
2022/08/09 07:41:17;;;;;;;5.18;2.47;;;;;;;33.15;23.58;96489.28;5034441;28;20503;-66
2022/08/09 07:43:45;;;;;;;2.45;2.20;;;;;;;33.10;23.30;96481.78;5034334;28;20115;-65
2022/08/09 07:46:14;;;;;;;4.80;2.20;;;;;;;32.53;23.27;96511.69;5034248;28;20049;-67
2022/08/09 07:48:44;;;;;;;9.52;2.40;;;;;;;32.30;24.01;96501.13;5034171;28;20513;-69
2022/08/09 07:51:13;;;;;;;5.68;2.25;;;;;;;32.20;24.51;96493.38;5034381;28;20124;-64
2022/08/09 07:53:40;;;;;;;6.07;2.33;;;;;;;32.54;24.04;96489.03;5034146;28;20053;-64
2022/08/09 07:56:09;;;;;;;6.05;2.40;;;;;;;32.77;23.37;96493.28;5034091;28;20088;-64
2022/08/09 07:58:37;;;;;;;7.93;2.33;;;;;;;33.03;22.96;96489.84;5033945;28;20042;-65
2022/08/09 08:01:08;;;;;;;5.68;2.35;;;;;;;33.21;22.88;96502.03;5034076;28;20079;-66
2022/08/09 08:03:36;;;;;;;5.35;2.38;;;;;;;33.01;23.37;96491.91;5034122;28;20053;-67
2022/08/09 08:06:13;;;;;;;6.53;2.03;;;;;;;32.93;23.07;96499.38;5033866;28;20053;-68
2022/08/09 08:08:44;;;;;;;6.32;2.30;;;;;;;33.02;23.78;96504.41;5033907;28;20045;-66
2022/08/09 08:11:13;;;;;;;6.18;2.05;;;;;;;33.09;23.59;96504.47;5033993;28;20050;-67
2022/08/09 08:13:41;;;;;;;3.35;2.10;;;;;;;32.37;23.58;96519.06;5033711;28;20045;-65
2022/08/09 08:16:09;;;;;;;3.08;2.03;;;;;;;31.77;24.68;96504.03;5033652;28;20446;-63
2022/08/09 08:18:36;;;;;;;3.08;2.15;;;;;;;31.96;25.04;96500.88;5032788;28;20049;-65
2022/08/09 08:21:05;;;;;;;4.57;2.63;;;;;;;32.32;25.01;96502.56;5033759;28;20110;-64
2022/08/09 08:23:33;;;;;;;8.38;2.75;;;;;;;32.43;25.26;96508.47;5033720;28;20049;-64
2022/08/09 08:26:00;;;;;;;7.22;2.15;;;;;;;32.71;24.74;96502.22;5033553;28;20124;-63
2022/08/09 08:28:28;;;;;;;10.10;2.80;;;;;;;32.56;25.04;96505.06;5033413;28;20068;-65
2022/08/09 08:30:55;;;;;;;3.85;2.33;;;;;;;32.38;25.45;96506.34;5033404;28;20045;-65
2022/08/09 08:33:23;;;;;;;7.50;2.53;;;;;;;32.55;26.08;96511.47;5033513;28;20487;-64
2022/08/09 08:35:50;;;;;;;7.18;2.55;;;;;;;32.44;25.61;96518.28;5033409;28;20084;-65
2022/08/09 08:38:19;;;;;;;5.97;2.60;;;;;;;32.67;25.71;96515.31;5033358;28;20046;-64
2022/08/09 08:40:48;;;;;;;6.63;2.40;;;;;;;32.57;25.30;96514.84;5033588;28;20103;-67
2022/08/09 08:43:15;;;;;;;7.90;2.63;;;;;;;32.67;26.56;96503.63;5033475;28;20388;-64
2022/08/09 08:45:49;;;;;;;5.82;2.33;;;;;;;32.42;25.39;96523.03;5033247;28;20045;-65
2022/08/09 08:48:17;;;;;;;4.40;2.22;;;;;;;32.18;25.55;96515.19;5033138;28;20104;-66
2022/08/09 08:50:46;;;;;;;5.03;2.10;;;;;;;31.82;25.73;96510.72;5033224;28;20404;-64
2022/08/09 08:53:14;;;;;;;6.37;2.20;;;;;;;31.82;26.21;96510.72;5033221;28;20103;-66
2022/08/09 08:55:43;;;;;;;9.27;2.47;;;;;;;31.97;25.43;96502.53;5033202;28;20144;-66
2022/08/09 08:58:11;;;;;;;4.25;2.15;;;;;;;32.25;25.76;96502.56;5033041;28;20111;-64
2022/08/09 09:00:41;;;;;;;8.48;2.50;;;;;;;32.51;25.48;96500.25;5033075;28;20072;-63
2022/08/09 09:03:10;;;;;;;4.75;2.50;;;;;;;32.71;24.90;96497.63;5033078;28;20045;-66
2022/08/09 09:05:38;;;;;;;4.68;1.85;;;;;;;32.46;24.24;96506.22;5032662;28;20443;-65
2022/08/09 09:08:08;;;;;;;4.72;2.13;;;;;;;32.27;24.41;96491.53;5033079;28;20541;-63
2022/08/09 09:10:38;;;;;;;4.55;2.03;;;;;;;31.85;25.20;96484.13;5033035;28;20049;-65
2022/08/09 09:13:07;;;;;;;4.07;2.22;;;;;;;31.71;25.44;96491.28;5033007;28;20096;-63
2022/08/09 09:15:35;;;;;;;3.40;2.47;;;;;;;32.18;25.98;96482.75;5032872;28;20053;-68
2022/08/09 09:18:02;;;;;;;4.20;2.47;;;;;;;32.22;25.92;96484.00;5032936;28;20072;-64
2022/08/09 09:20:37;;;;;;;2.42;2.17;;;;;;;32.45;25.98;96473.94;5032789;28;20056;-65
2022/08/09 09:23:04;;;;;;;5.35;2.10;;;;;;;32.68;24.32;96478.25;5032924;28;20438;-67
2022/08/09 09:25:37;;;;;;;5.82;2.38;;;;;;;32.68;24.30;96470.97;5032785;28;20049;-66
2022/08/09 09:28:07;;;;;;;3.55;2.25;;;;;;;32.34;25.67;96478.88;5032665;28;20533;-65
2022/08/09 09:30:52;;;;;;;4.32;2.50;;;;;;;32.05;26.63;96486.16;5036838;28;20049;-64
2022/08/09 09:33:19;;;;;;;9.50;2.67;;;;;;;32.17;26.00;96478.34;5036763;28;20049;-66
2022/08/09 09:35:54;;;;;;;4.95;2.22;;;;;;;31.77;25.61;96471.59;5036681;28;20103;-63
2022/08/09 09:38:23;;;;;;;3.15;2.20;;;;;;;31.94;25.87;96473.19;5036787;28;20056;-66
2022/08/09 09:40:50;;;;;;;5.00;2.10;;;;;;;32.13;23.44;96458.16;5036709;28;20443;-63
2022/08/09 09:43:20;;;;;;;3.90;1.65;;;;;;;32.45;21.23;96431.50;5036688;28;20180;-67
2022/08/09 09:45:50;;;;;;;6.18;1.77;;;;;;;32.69;21.40;96455.56;5036729;28;20060;-65
2022/08/09 09:48:18;;;;;;;2.03;1.80;;;;;;;33.00;24.10;96470.47;5036439;28;20049;-65
2022/08/09 09:50:48;;;;;;;6.18;2.20;;;;;;;33.27;20.96;96454.31;5036457;28;20053;-67
2022/08/09 09:53:16;;;;;;;7.82;2.05;;;;;;;33.45;22.97;96455.56;5036417;28;20045;-70
2022/08/09 09:55:54;;;;;;;5.13;2.00;;;;;;;33.29;23.10;96457.66;5036459;28;20088;-67
2022/08/09 09:58:23;;;;;;;2.72;1.80;;;;;;;33.17;23.33;96446.59;5036373;28;20053;-63
2022/08/09 10:00:53;;;;;;;4.03;1.85;;;;;;;33.40;20.21;96438.06;5036409;28;20046;-66
2022/08/09 10:03:42;;;;;;;1.88;1.70;;;;;;;33.32;19.13;96445.56;5036325;28;20184;-67
2022/08/09 10:06:09;;;;;;;4.35;1.77;;;;;;;33.11;17.38;96437.38;5035977;28;20561;-65
2022/08/09 10:08:37;;;;;;;7.90;1.90;;;;;;;33.11;20.42;96433.88;5036063;28;20506;-65
2022/08/09 10:11:18;;;;;;;8.88;2.85;;;;;;;33.10;23.00;96435.72;5036039;28;20132;-67
2022/08/09 10:13:47;;;;;;;4.95;2.20;;;;;;;32.86;23.83;96440.63;5036044;28;20049;-63
2022/08/09 10:16:14;;;;;;;10.10;2.13;;;;;;;32.79;20.87;96453.31;5036060;28;20597;-64
2022/08/09 10:18:52;;;;;;;5.68;2.38;;;;;;;33.05;18.64;96435.53;5035929;28;20049;-65
2022/08/09 10:21:19;;;;;;;7.60;1.95;;;;;;;33.32;19.58;96442.84;5035888;28;20046;-64
2022/08/09 10:23:48;;;;;;;5.05;1.70;;;;;;;33.07;21.47;96425.28;5035796;28;20068;-62
2022/08/09 10:26:15;;;;;;;3.92;1.92;;;;;;;32.94;23.26;96436.91;5035969;28;20042;-64
2022/08/09 10:28:44;;;;;;;4.07;2.00;;;;;;;32.67;22.44;96435.97;5035734;28;20046;-64
2022/08/09 10:31:14;;;;;;;5.05;2.35;;;;;;;32.25;22.30;96432.22;5035784;28;20092;-63
2022/08/09 10:33:42;;;;;;;3.33;2.10;;;;;;;32.18;21.94;96433.22;5035731;28;20049;-63
2022/08/09 10:36:11;;;;;;;3.65;1.95;;;;;;;32.17;23.29;96437.78;5035941;28;20052;-66
2022/08/09 10:38:40;;;;;;;2.83;2.00;;;;;;;31.99;25.07;96433.72;5035490;28;20124;-65
2022/08/09 10:41:07;;;;;;;4.15;1.83;;;;;;;32.38;22.81;96423.34;5034716;28;20124;-62
2022/08/09 10:43:35;;;;;;;6.32;2.10;;;;;;;32.87;24.10;96431.47;5035435;28;20049;-62
2022/08/09 10:46:24;;;;;;;5.30;2.17;;;;;;;32.63;24.22;96438.25;5035356;28;20050;-64
2022/08/09 10:48:58;;;;;;;2.70;2.28;;;;;;;32.42;23.64;96448.13;5035328;28;20144;-64
2022/08/09 10:51:38;;;;;;;5.78;2.33;;;;;;;32.20;23.76;96444.69;5035332;28;20384;-65
2022/08/09 10:54:09;;;;;;;4.30;2.08;;;;;;;32.00;24.95;96450.78;5035262;28;20176;-63
2022/08/09 10:56:38;;;;;;;7.13;2.13;;;;;;;31.78;25.19;96448.94;5035330;28;20503;-66
2022/08/09 10:59:30;;;;;;;5.00;2.40;;;;;;;31.47;25.69;96451.97;5035281;28;20046;-64
2022/08/09 11:01:59;;;;;;;4.30;2.30;;;;;;;31.52;25.57;96439.56;5035202;28;20041;-64
2022/08/09 11:04:27;;;;;;;7.00;2.30;;;;;;;31.67;25.08;96429.72;5035311;28;20049;-69
2022/08/09 11:07:27;;;;;;;3.60;2.03;;;;;;;31.76;25.35;96445.56;5034996;28;20052;-69
2022/08/09 11:09:54;;;;;;;9.37;2.23;;;;;;;31.49;25.66;96439.13;5035183;28;20041;-68
2022/08/09 11:12:23;;;;;;;5.93;2.35;;;;;;;31.26;26.35;96446.38;5035109;28;20132;-67
2022/08/09 11:14:53;;;;;;;3.95;2.35;;;;;;;31.03;26.95;96441.13;5034959;28;20054;-67
2022/08/09 11:17:54;;;;;;;5.03;2.50;;;;;;;31.02;26.25;96439.47;5035031;28;20091;-65
2022/08/09 11:20:46;;;;;;;9.82;2.42;;;;;;;31.31;26.60;96434.16;5034768;28;20045;-63
2022/08/09 11:23:14;;;;;;;4.50;2.05;;;;;;;31.74;25.24;96428.75;5029806;28;20551;-65
2022/08/09 11:25:47;;;;;;;6.30;2.22;;;;;;;32.19;23.86;96426.75;5034808;28;20179;-65
2022/08/09 11:28:40;;;;;;;6.40;2.00;;;;;;;32.40;22.43;96423.97;5034663;28;20049;-66
2022/08/09 11:31:43;;;;;;;9.35;2.00;;;;;;;32.60;21.38;96427.84;5034780;28;20060;-65
2022/08/09 11:34:21;;;;;;;5.72;1.90;;;;;;;32.75;21.71;96420.38;5031440;28;20479;-64
2022/08/09 11:36:49;;;;;;;3.45;1.58;;;;;;;32.79;22.54;96412.69;5034491;28;20476;-65
2022/08/09 11:39:16;;;;;;;7.88;2.08;;;;;;;32.63;20.76;96422.03;5034428;28;20077;-67
2022/08/09 11:41:43;;;;;;;9.73;1.73;;;;;;;32.13;21.34;96436.50;5034363;28;20132;-67
2022/08/09 11:44:10;;;;;;;3.08;1.42;;;;;;;31.72;21.82;96427.28;5034338;28;20053;-66
2022/08/09 11:46:55;;;;;;;7.32;1.75;;;;;;;31.46;22.00;96424.16;5034311;28;20042;-66
2022/08/09 11:49:56;;;;;;;7.68;1.70;;;;;;;31.39;21.90;96423.22;5034223;28;20053;-63